sensor_id;sensor_type;location;lat;lon;timestamp;P1;durP1;ratioP1;P2;durP2;ratioP2
12703;SDS011;6416;52.182;7.650;2023-03-21T00:01:33;7.43;;;5.23;;
12703;SDS011;6416;52.182;7.650;2023-03-21T00:03:58;7.33;;;5.83;;
12703;SDS011;6416;52.182;7.650;2023-03-21T00:06:24;7.50;;;5.43;;
12703;SDS011;6416;52.182;7.650;2023-03-21T00:08:49;7.73;;;5.20;;
12703;SDS011;6416;52.182;7.650;2023-03-21T00:11:14;7.33;;;6.10;;
12703;SDS011;6416;52.182;7.650;2023-03-21T00:13:40;8.73;;;6.27;;
12703;SDS011;6416;52.182;7.650;2023-03-21T00:18:36;9.27;;;5.90;;
12703;SDS011;6416;52.182;7.650;2023-03-21T00:21:02;8.83;;;5.40;;
12703;SDS011;6416;52.182;7.650;2023-03-21T00:23:30;9.53;;;5.60;;
12703;SDS011;6416;52.182;7.650;2023-03-21T00:25:56;8.43;;;5.53;;
12703;SDS011;6416;52.182;7.650;2023-03-21T00:28:23;9.57;;;5.90;;
12703;SDS011;6416;52.182;7.650;2023-03-21T00:30:49;11.33;;;6.10;;
12703;SDS011;6416;52.182;7.650;2023-03-21T00:33:15;9.17;;;5.50;;
12703;SDS011;6416;52.182;7.650;2023-03-21T00:35:41;9.40;;;5.40;;
12703;SDS011;6416;52.182;7.650;2023-03-21T00:38:06;6.67;;;5.17;;
12703;SDS011;6416;52.182;7.650;2023-03-21T00:40:32;10.47;;;5.57;;
12703;SDS011;6416;52.182;7.650;2023-03-21T00:42:57;7.77;;;5.57;;
12703;SDS011;6416;52.182;7.650;2023-03-21T00:45:23;8.50;;;5.67;;
12703;SDS011;6416;52.182;7.650;2023-03-21T00:47:48;6.20;;;5.23;;
12703;SDS011;6416;52.182;7.650;2023-03-21T00:50:14;10.97;;;6.40;;
12703;SDS011;6416;52.182;7.650;2023-03-21T00:52:40;8.80;;;5.50;;
12703;SDS011;6416;52.182;7.650;2023-03-21T00:55:05;8.90;;;5.93;;
12703;SDS011;6416;52.182;7.650;2023-03-21T00:57:31;8.00;;;5.37;;
12703;SDS011;6416;52.182;7.650;2023-03-21T00:59:57;9.70;;;6.50;;
12703;SDS011;6416;52.182;7.650;2023-03-21T01:02:23;8.50;;;5.73;;
12703;SDS011;6416;52.182;7.650;2023-03-21T01:04:49;8.37;;;5.73;;
12703;SDS011;6416;52.182;7.650;2023-03-21T01:07:14;7.33;;;5.20;;
12703;SDS011;6416;52.182;7.650;2023-03-21T01:09:40;7.47;;;5.43;;
12703;SDS011;6416;52.182;7.650;2023-03-21T01:12:05;9.33;;;5.50;;
12703;SDS011;6416;52.182;7.650;2023-03-21T01:14:31;10.17;;;6.27;;
12703;SDS011;6416;52.182;7.650;2023-03-21T01:16:56;6.90;;;6.03;;
12703;SDS011;6416;52.182;7.650;2023-03-21T01:19:23;8.20;;;5.73;;
12703;SDS011;6416;52.182;7.650;2023-03-21T01:21:49;7.00;;;5.63;;
12703;SDS011;6416;52.182;7.650;2023-03-21T01:24:14;8.83;;;5.43;;
12703;SDS011;6416;52.182;7.650;2023-03-21T01:26:40;10.83;;;6.53;;
12703;SDS011;6416;52.182;7.650;2023-03-21T01:29:05;7.97;;;6.03;;
12703;SDS011;6416;52.182;7.650;2023-03-21T01:31:31;7.83;;;6.10;;
12703;SDS011;6416;52.182;7.650;2023-03-21T01:33:57;11.63;;;6.97;;
12703;SDS011;6416;52.182;7.650;2023-03-21T01:36:23;7.30;;;5.40;;
12703;SDS011;6416;52.182;7.650;2023-03-21T01:38:50;6.50;;;5.77;;
12703;SDS011;6416;52.182;7.650;2023-03-21T01:41:29;10.10;;;6.20;;
12703;SDS011;6416;52.182;7.650;2023-03-21T01:43:57;8.83;;;6.40;;
12703;SDS011;6416;52.182;7.650;2023-03-21T01:46:36;8.00;;;5.60;;
12703;SDS011;6416;52.182;7.650;2023-03-21T01:49:12;9.97;;;6.73;;
12703;SDS011;6416;52.182;7.650;2023-03-21T01:51:49;9.17;;;6.13;;
12703;SDS011;6416;52.182;7.650;2023-03-21T01:54:21;8.33;;;6.20;;
12703;SDS011;6416;52.182;7.650;2023-03-21T01:56:50;7.10;;;6.03;;
12703;SDS011;6416;52.182;7.650;2023-03-21T01:59:19;11.27;;;7.07;;
12703;SDS011;6416;52.182;7.650;2023-03-21T02:01:49;8.40;;;6.57;;
12703;SDS011;6416;52.182;7.650;2023-03-21T02:04:16;7.93;;;6.37;;
12703;SDS011;6416;52.182;7.650;2023-03-21T02:09:11;7.63;;;6.83;;
12703;SDS011;6416;52.182;7.650;2023-03-21T02:11:40;9.77;;;6.53;;
12703;SDS011;6416;52.182;7.650;2023-03-21T02:14:08;7.87;;;6.47;;
12703;SDS011;6416;52.182;7.650;2023-03-21T02:16:49;8.93;;;6.33;;
12703;SDS011;6416;52.182;7.650;2023-03-21T02:25:38;6.83;;;6.13;;
12703;SDS011;6416;52.182;7.650;2023-03-21T02:27:55;8.80;;;6.93;;
12703;SDS011;6416;52.182;7.650;2023-03-21T02:38:30;7.37;;;6.23;;
12703;SDS011;6416;52.182;7.650;2023-03-21T02:41:20;8.00;;;6.37;;
12703;SDS011;6416;52.182;7.650;2023-03-21T02:43:58;9.20;;;6.67;;
12703;SDS011;6416;52.182;7.650;2023-03-21T02:46:37;9.17;;;7.03;;
12703;SDS011;6416;52.182;7.650;2023-03-21T02:49:21;7.30;;;6.37;;
12703;SDS011;6416;52.182;7.650;2023-03-21T02:51:54;10.07;;;6.47;;
12703;SDS011;6416;52.182;7.650;2023-03-21T02:54:22;8.20;;;7.13;;
12703;SDS011;6416;52.182;7.650;2023-03-21T02:56:50;7.37;;;6.37;;
12703;SDS011;6416;52.182;7.650;2023-03-21T02:59:18;8.10;;;6.30;;
12703;SDS011;6416;52.182;7.650;2023-03-21T03:01:46;9.03;;;6.60;;
12703;SDS011;6416;52.182;7.650;2023-03-21T03:04:22;9.73;;;6.77;;
12703;SDS011;6416;52.182;7.650;2023-03-21T03:07:06;8.93;;;6.33;;
12703;SDS011;6416;52.182;7.650;2023-03-21T03:12:47;8.27;;;6.60;;
12703;SDS011;6416;52.182;7.650;2023-03-21T03:20:52;8.20;;;6.47;;
12703;SDS011;6416;52.182;7.650;2023-03-21T03:29:25;9.63;;;6.93;;
12703;SDS011;6416;52.182;7.650;2023-03-21T03:34:25;11.60;;;6.77;;
12703;SDS011;6416;52.182;7.650;2023-03-21T03:36:56;8.23;;;6.80;;
12703;SDS011;6416;52.182;7.650;2023-03-21T03:39:26;12.17;;;7.23;;
12703;SDS011;6416;52.182;7.650;2023-03-21T03:42:06;7.50;;;6.70;;
12703;SDS011;6416;52.182;7.650;2023-03-21T03:44:47;9.70;;;7.13;;
12703;SDS011;6416;52.182;7.650;2023-03-21T03:47:23;7.67;;;6.77;;
12703;SDS011;6416;52.182;7.650;2023-03-21T03:52:33;9.03;;;7.13;;
12703;SDS011;6416;52.182;7.650;2023-03-21T03:55:08;10.90;;;7.27;;
12703;SDS011;6416;52.182;7.650;2023-03-21T03:57:37;10.53;;;7.00;;
12703;SDS011;6416;52.182;7.650;2023-03-21T04:00:02;8.50;;;7.00;;
12703;SDS011;6416;52.182;7.650;2023-03-21T04:02:28;9.13;;;8.23;;
12703;SDS011;6416;52.182;7.650;2023-03-21T04:04:54;7.97;;;7.23;;
12703;SDS011;6416;52.182;7.650;2023-03-21T04:07:20;9.20;;;7.33;;
12703;SDS011;6416;52.182;7.650;2023-03-21T04:09:45;10.03;;;7.30;;
12703;SDS011;6416;52.182;7.650;2023-03-21T04:12:11;11.27;;;7.53;;
12703;SDS011;6416;52.182;7.650;2023-03-21T04:14:37;7.90;;;6.60;;
12703;SDS011;6416;52.182;7.650;2023-03-21T04:17:02;7.73;;;6.80;;
12703;SDS011;6416;52.182;7.650;2023-03-21T04:19:28;8.93;;;7.40;;
12703;SDS011;6416;52.182;7.650;2023-03-21T04:21:53;9.73;;;6.73;;
12703;SDS011;6416;52.182;7.650;2023-03-21T04:24:19;9.53;;;7.07;;
12703;SDS011;6416;52.182;7.650;2023-03-21T04:26:44;9.70;;;7.17;;
12703;SDS011;6416;52.182;7.650;2023-03-21T04:29:09;10.60;;;7.53;;
12703;SDS011;6416;52.182;7.650;2023-03-21T04:31:35;11.53;;;7.00;;
12703;SDS011;6416;52.182;7.650;2023-03-21T04:34:01;7.67;;;6.90;;
12703;SDS011;6416;52.182;7.650;2023-03-21T04:36:29;10.57;;;6.80;;
12703;SDS011;6416;52.182;7.650;2023-03-21T04:38:54;10.07;;;7.17;;
12703;SDS011;6416;52.182;7.650;2023-03-21T04:41:20;8.07;;;6.70;;
12703;SDS011;6416;52.182;7.650;2023-03-21T04:43:46;8.40;;;6.67;;
12703;SDS011;6416;52.182;7.650;2023-03-21T04:46:11;7.37;;;6.63;;
12703;SDS011;6416;52.182;7.650;2023-03-21T04:48:37;9.47;;;6.83;;
12703;SDS011;6416;52.182;7.650;2023-03-21T04:51:03;9.23;;;7.03;;
12703;SDS011;6416;52.182;7.650;2023-03-21T04:53:28;10.67;;;7.13;;
12703;SDS011;6416;52.182;7.650;2023-03-21T04:55:54;10.27;;;7.10;;
12703;SDS011;6416;52.182;7.650;2023-03-21T04:58:19;7.57;;;6.57;;
12703;SDS011;6416;52.182;7.650;2023-03-21T05:00:45;10.27;;;6.93;;
12703;SDS011;6416;52.182;7.650;2023-03-21T05:03:10;10.93;;;6.97;;
12703;SDS011;6416;52.182;7.650;2023-03-21T05:05:36;10.07;;;7.50;;
12703;SDS011;6416;52.182;7.650;2023-03-21T05:08:03;7.73;;;6.93;;
12703;SDS011;6416;52.182;7.650;2023-03-21T05:10:29;8.30;;;7.00;;
12703;SDS011;6416;52.182;7.650;2023-03-21T05:12:54;10.77;;;7.10;;
12703;SDS011;6416;52.182;7.650;2023-03-21T05:15:20;9.67;;;7.07;;
12703;SDS011;6416;52.182;7.650;2023-03-21T05:17:45;9.47;;;7.63;;
12703;SDS011;6416;52.182;7.650;2023-03-21T05:20:11;8.00;;;6.77;;
12703;SDS011;6416;52.182;7.650;2023-03-21T05:22:36;9.10;;;6.70;;
12703;SDS011;6416;52.182;7.650;2023-03-21T05:25:02;9.40;;;7.13;;
12703;SDS011;6416;52.182;7.650;2023-03-21T05:27:27;10.20;;;7.67;;
12703;SDS011;6416;52.182;7.650;2023-03-21T05:29:53;8.43;;;7.57;;
12703;SDS011;6416;52.182;7.650;2023-03-21T05:32:18;9.10;;;7.40;;
12703;SDS011;6416;52.182;7.650;2023-03-21T05:34:44;9.03;;;7.33;;
12703;SDS011;6416;52.182;7.650;2023-03-21T05:37:09;9.83;;;7.30;;
12703;SDS011;6416;52.182;7.650;2023-03-21T05:39:35;8.37;;;7.03;;
12703;SDS011;6416;52.182;7.650;2023-03-21T05:42:00;9.57;;;6.80;;
12703;SDS011;6416;52.182;7.650;2023-03-21T05:44:26;7.47;;;6.67;;
12703;SDS011;6416;52.182;7.650;2023-03-21T05:46:51;9.13;;;7.30;;
12703;SDS011;6416;52.182;7.650;2023-03-21T05:49:16;13.13;;;7.70;;
12703;SDS011;6416;52.182;7.650;2023-03-21T05:51:42;11.40;;;6.90;;
12703;SDS011;6416;52.182;7.650;2023-03-21T05:54:07;7.37;;;6.67;;
12703;SDS011;6416;52.182;7.650;2023-03-21T05:56:33;9.53;;;6.93;;
12703;SDS011;6416;52.182;7.650;2023-03-21T05:58:58;10.30;;;7.00;;
12703;SDS011;6416;52.182;7.650;2023-03-21T06:01:24;9.73;;;6.73;;
12703;SDS011;6416;52.182;7.650;2023-03-21T06:03:49;9.20;;;6.53;;
12703;SDS011;6416;52.182;7.650;2023-03-21T06:06:15;9.10;;;6.90;;
12703;SDS011;6416;52.182;7.650;2023-03-21T06:08:40;9.50;;;7.00;;
12703;SDS011;6416;52.182;7.650;2023-03-21T06:11:07;8.63;;;6.60;;
12703;SDS011;6416;52.182;7.650;2023-03-21T06:13:47;9.37;;;7.33;;
12703;SDS011;6416;52.182;7.650;2023-03-21T06:16:12;9.17;;;7.00;;
12703;SDS011;6416;52.182;7.650;2023-03-21T06:18:38;8.33;;;6.60;;
12703;SDS011;6416;52.182;7.650;2023-03-21T06:21:03;9.70;;;6.50;;
12703;SDS011;6416;52.182;7.650;2023-03-21T06:23:29;10.33;;;7.10;;
12703;SDS011;6416;52.182;7.650;2023-03-21T06:25:54;10.03;;;7.00;;
12703;SDS011;6416;52.182;7.650;2023-03-21T06:28:19;13.80;;;7.77;;
12703;SDS011;6416;52.182;7.650;2023-03-21T06:30:45;10.60;;;7.13;;
12703;SDS011;6416;52.182;7.650;2023-03-21T06:33:10;10.23;;;7.23;;
12703;SDS011;6416;52.182;7.650;2023-03-21T06:35:36;8.50;;;6.83;;
12703;SDS011;6416;52.182;7.650;2023-03-21T06:38:01;12.20;;;7.80;;
12703;SDS011;6416;52.182;7.650;2023-03-21T06:40:27;7.90;;;7.10;;
12703;SDS011;6416;52.182;7.650;2023-03-21T06:42:52;10.27;;;7.50;;
12703;SDS011;6416;52.182;7.650;2023-03-21T06:45:18;11.10;;;8.27;;
12703;SDS011;6416;52.182;7.650;2023-03-21T06:47:43;10.73;;;8.03;;
12703;SDS011;6416;52.182;7.650;2023-03-21T06:50:09;11.43;;;8.17;;
12703;SDS011;6416;52.182;7.650;2023-03-21T06:52:35;9.83;;;8.30;;
12703;SDS011;6416;52.182;7.650;2023-03-21T06:55:00;10.73;;;7.93;;
12703;SDS011;6416;52.182;7.650;2023-03-21T06:57:26;10.80;;;8.43;;
12703;SDS011;6416;52.182;7.650;2023-03-21T06:59:51;10.77;;;9.07;;
12703;SDS011;6416;52.182;7.650;2023-03-21T07:02:17;11.03;;;9.53;;
12703;SDS011;6416;52.182;7.650;2023-03-21T07:04:42;10.23;;;9.13;;
12703;SDS011;6416;52.182;7.650;2023-03-21T07:07:08;15.30;;;10.90;;
12703;SDS011;6416;52.182;7.650;2023-03-21T07:09:33;12.03;;;10.73;;
12703;SDS011;6416;52.182;7.650;2023-03-21T07:11:59;13.60;;;11.33;;
12703;SDS011;6416;52.182;7.650;2023-03-21T07:14:24;13.83;;;12.33;;
12703;SDS011;6416;52.182;7.650;2023-03-21T07:16:50;13.97;;;11.63;;
12703;SDS011;6416;52.182;7.650;2023-03-21T07:19:15;13.87;;;11.87;;
12703;SDS011;6416;52.182;7.650;2023-03-21T07:21:41;14.33;;;12.53;;
12703;SDS011;6416;52.182;7.650;2023-03-21T07:24:06;15.53;;;12.40;;
12703;SDS011;6416;52.182;7.650;2023-03-21T07:26:32;13.07;;;11.67;;
12703;SDS011;6416;52.182;7.650;2023-03-21T07:28:57;13.47;;;11.10;;
12703;SDS011;6416;52.182;7.650;2023-03-21T07:31:23;13.37;;;11.97;;
12703;SDS011;6416;52.182;7.650;2023-03-21T07:33:48;13.40;;;11.80;;
12703;SDS011;6416;52.182;7.650;2023-03-21T07:36:14;12.87;;;11.37;;
12703;SDS011;6416;52.182;7.650;2023-03-21T07:38:41;12.00;;;10.63;;
12703;SDS011;6416;52.182;7.650;2023-03-21T07:41:07;13.97;;;10.93;;
12703;SDS011;6416;52.182;7.650;2023-03-21T07:43:33;13.83;;;11.43;;
12703;SDS011;6416;52.182;7.650;2023-03-21T07:45:59;14.87;;;11.23;;
12703;SDS011;6416;52.182;7.650;2023-03-21T07:48:25;12.17;;;10.90;;
12703;SDS011;6416;52.182;7.650;2023-03-21T07:50:50;12.90;;;10.43;;
12703;SDS011;6416;52.182;7.650;2023-03-21T07:53:16;13.43;;;10.07;;
12703;SDS011;6416;52.182;7.650;2023-03-21T07:55:41;12.43;;;10.17;;
12703;SDS011;6416;52.182;7.650;2023-03-21T07:58:07;11.37;;;10.17;;
12703;SDS011;6416;52.182;7.650;2023-03-21T08:00:32;10.77;;;9.57;;
12703;SDS011;6416;52.182;7.650;2023-03-21T08:02:58;13.90;;;10.10;;
12703;SDS011;6416;52.182;7.650;2023-03-21T08:05:25;12.30;;;9.80;;
12703;SDS011;6416;52.182;7.650;2023-03-21T08:07:53;10.10;;;9.00;;
12703;SDS011;6416;52.182;7.650;2023-03-21T08:10:19;10.50;;;9.40;;
12703;SDS011;6416;52.182;7.650;2023-03-21T08:12:44;12.53;;;9.47;;
12703;SDS011;6416;52.182;7.650;2023-03-21T08:15:11;9.10;;;8.07;;
12703;SDS011;6416;52.182;7.650;2023-03-21T08:17:37;9.80;;;8.73;;
12703;SDS011;6416;52.182;7.650;2023-03-21T08:20:04;9.57;;;8.00;;
12703;SDS011;6416;52.182;7.650;2023-03-21T08:22:31;11.53;;;8.00;;
12703;SDS011;6416;52.182;7.650;2023-03-21T08:24:56;8.83;;;7.67;;
12703;SDS011;6416;52.182;7.650;2023-03-21T08:27:22;10.30;;;8.33;;
12703;SDS011;6416;52.182;7.650;2023-03-21T08:29:47;9.27;;;7.33;;
12703;SDS011;6416;52.182;7.650;2023-03-21T08:32:13;10.77;;;7.70;;
12703;SDS011;6416;52.182;7.650;2023-03-21T08:34:38;11.40;;;7.57;;
12703;SDS011;6416;52.182;7.650;2023-03-21T08:37:04;8.23;;;7.10;;
12703;SDS011;6416;52.182;7.650;2023-03-21T08:39:29;9.57;;;7.40;;
12703;SDS011;6416;52.182;7.650;2023-03-21T08:41:55;9.50;;;6.83;;
12703;SDS011;6416;52.182;7.650;2023-03-21T08:44:20;9.27;;;7.73;;
12703;SDS011;6416;52.182;7.650;2023-03-21T08:46:45;11.23;;;7.37;;
12703;SDS011;6416;52.182;7.650;2023-03-21T08:49:11;9.73;;;7.73;;
12703;SDS011;6416;52.182;7.650;2023-03-21T08:51:36;11.70;;;8.03;;
12703;SDS011;6416;52.182;7.650;2023-03-21T08:54:02;10.07;;;7.33;;
12703;SDS011;6416;52.182;7.650;2023-03-21T08:56:29;8.10;;;6.63;;
12703;SDS011;6416;52.182;7.650;2023-03-21T08:58:54;7.47;;;6.60;;
12703;SDS011;6416;52.182;7.650;2023-03-21T09:01:20;8.57;;;7.50;;
12703;SDS011;6416;52.182;7.650;2023-03-21T09:03:45;10.00;;;7.67;;
12703;SDS011;6416;52.182;7.650;2023-03-21T09:06:11;10.33;;;7.30;;
12703;SDS011;6416;52.182;7.650;2023-03-21T09:08:37;8.53;;;7.27;;
12703;SDS011;6416;52.182;7.650;2023-03-21T09:11:02;9.73;;;7.40;;
12703;SDS011;6416;52.182;7.650;2023-03-21T09:13:28;12.10;;;8.23;;
12703;SDS011;6416;52.182;7.650;2023-03-21T09:15:54;9.17;;;7.00;;
12703;SDS011;6416;52.182;7.650;2023-03-21T09:18:20;10.77;;;8.07;;
12703;SDS011;6416;52.182;7.650;2023-03-21T09:20:45;8.77;;;6.97;;
12703;SDS011;6416;52.182;7.650;2023-03-21T09:23:12;10.17;;;6.80;;
12703;SDS011;6416;52.182;7.650;2023-03-21T09:25:43;9.43;;;7.23;;
12703;SDS011;6416;52.182;7.650;2023-03-21T09:28:09;10.53;;;8.07;;
12703;SDS011;6416;52.182;7.650;2023-03-21T09:30:35;9.43;;;7.30;;
12703;SDS011;6416;52.182;7.650;2023-03-21T09:33:02;11.90;;;8.17;;
12703;SDS011;6416;52.182;7.650;2023-03-21T09:35:28;10.57;;;7.60;;
12703;SDS011;6416;52.182;7.650;2023-03-21T09:37:54;8.37;;;7.50;;
12703;SDS011;6416;52.182;7.650;2023-03-21T09:40:38;11.30;;;7.87;;
12703;SDS011;6416;52.182;7.650;2023-03-21T09:49:05;9.13;;;7.13;;
12703;SDS011;6416;52.182;7.650;2023-03-21T09:51:36;10.27;;;6.93;;
12703;SDS011;6416;52.182;7.650;2023-03-21T09:54:12;9.23;;;7.27;;
12703;SDS011;6416;52.182;7.650;2023-03-21T09:56:56;9.63;;;7.90;;
12703;SDS011;6416;52.182;7.650;2023-03-21T09:59:27;10.53;;;7.30;;
12703;SDS011;6416;52.182;7.650;2023-03-21T10:01:58;8.17;;;6.87;;
12703;SDS011;6416;52.182;7.650;2023-03-21T10:04:24;9.80;;;7.73;;
12703;SDS011;6416;52.182;7.650;2023-03-21T10:06:52;10.60;;;7.73;;
12703;SDS011;6416;52.182;7.650;2023-03-21T10:09:22;11.27;;;7.70;;
12703;SDS011;6416;52.182;7.650;2023-03-21T10:11:49;10.53;;;6.17;;
12703;SDS011;6416;52.182;7.650;2023-03-21T10:14:36;7.60;;;6.80;;
12703;SDS011;6416;52.182;7.650;2023-03-21T10:20:34;8.67;;;6.37;;
12703;SDS011;6416;52.182;7.650;2023-03-21T10:22:43;8.83;;;6.43;;
12703;SDS011;6416;52.182;7.650;2023-03-21T10:25:12;8.57;;;6.60;;
12703;SDS011;6416;52.182;7.650;2023-03-21T10:27:40;8.73;;;6.53;;
12703;SDS011;6416;52.182;7.650;2023-03-21T10:30:05;12.67;;;6.33;;
12703;SDS011;6416;52.182;7.650;2023-03-21T10:32:33;9.57;;;6.93;;
12703;SDS011;6416;52.182;7.650;2023-03-21T10:34:59;8.20;;;6.60;;
12703;SDS011;6416;52.182;7.650;2023-03-21T10:37:25;8.40;;;6.57;;
12703;SDS011;6416;52.182;7.650;2023-03-21T10:39:52;8.60;;;6.63;;
12703;SDS011;6416;52.182;7.650;2023-03-21T10:42:20;10.70;;;7.60;;
12703;SDS011;6416;52.182;7.650;2023-03-21T10:44:48;11.50;;;6.93;;
12703;SDS011;6416;52.182;7.650;2023-03-21T10:47:29;8.80;;;6.73;;
12703;SDS011;6416;52.182;7.650;2023-03-21T10:50:06;7.87;;;6.70;;
12703;SDS011;6416;52.182;7.650;2023-03-21T10:52:37;11.23;;;6.67;;
12703;SDS011;6416;52.182;7.650;2023-03-21T10:55:28;7.70;;;6.53;;
12703;SDS011;6416;52.182;7.650;2023-03-21T10:57:57;9.70;;;7.10;;
12703;SDS011;6416;52.182;7.650;2023-03-21T11:00:27;8.13;;;6.40;;
12703;SDS011;6416;52.182;7.650;2023-03-21T11:02:57;8.20;;;6.20;;
12703;SDS011;6416;52.182;7.650;2023-03-21T11:05:25;8.17;;;6.47;;
12703;SDS011;6416;52.182;7.650;2023-03-21T11:08:06;9.57;;;6.57;;
12703;SDS011;6416;52.182;7.650;2023-03-21T11:13:32;7.13;;;6.20;;
12703;SDS011;6416;52.182;7.650;2023-03-21T11:16:07;8.33;;;6.07;;
12703;SDS011;6416;52.182;7.650;2023-03-21T11:18:48;11.73;;;7.23;;
12703;SDS011;6416;52.182;7.650;2023-03-21T11:21:15;8.83;;;6.33;;
12703;SDS011;6416;52.182;7.650;2023-03-21T11:23:45;8.83;;;6.20;;
12703;SDS011;6416;52.182;7.650;2023-03-21T11:26:17;9.30;;;6.57;;
12703;SDS011;6416;52.182;7.650;2023-03-21T11:28:45;9.03;;;6.43;;
12703;SDS011;6416;52.182;7.650;2023-03-21T11:31:11;7.57;;;6.27;;
12703;SDS011;6416;52.182;7.650;2023-03-21T11:33:37;7.43;;;6.33;;
12703;SDS011;6416;52.182;7.650;2023-03-21T11:36:23;7.20;;;5.83;;
12703;SDS011;6416;52.182;7.650;2023-03-21T11:38:57;9.00;;;6.10;;
12703;SDS011;6416;52.182;7.650;2023-03-21T11:41:36;8.43;;;6.20;;
12703;SDS011;6416;52.182;7.650;2023-03-21T11:44:04;9.10;;;6.70;;
12703;SDS011;6416;52.182;7.650;2023-03-21T11:46:30;9.33;;;6.83;;
12703;SDS011;6416;52.182;7.650;2023-03-21T11:49:03;8.80;;;6.80;;
12703;SDS011;6416;52.182;7.650;2023-03-21T11:54:23;7.57;;;6.77;;
12703;SDS011;6416;52.182;7.650;2023-03-21T11:57:00;7.93;;;6.87;;
12703;SDS011;6416;52.182;7.650;2023-03-21T12:02:35;8.07;;;6.60;;
12703;SDS011;6416;52.182;7.650;2023-03-21T12:05:26;10.17;;;6.63;;
12703;SDS011;6416;52.182;7.650;2023-03-21T12:13:18;7.47;;;6.30;;
12703;SDS011;6416;52.182;7.650;2023-03-21T12:16:04;7.87;;;6.43;;
12703;SDS011;6416;52.182;7.650;2023-03-21T12:30:38;9.03;;;7.10;;
12703;SDS011;6416;52.182;7.650;2023-03-21T12:36:03;8.87;;;7.17;;
12703;SDS011;6416;52.182;7.650;2023-03-21T12:42:07;10.17;;;7.10;;
12703;SDS011;6416;52.182;7.650;2023-03-21T12:44:37;7.33;;;6.40;;
12703;SDS011;6416;52.182;7.650;2023-03-21T12:47:15;7.70;;;6.83;;
12703;SDS011;6416;52.182;7.650;2023-03-21T12:52:45;7.87;;;6.50;;
12703;SDS011;6416;52.182;7.650;2023-03-21T12:57:46;8.97;;;6.50;;
12703;SDS011;6416;52.182;7.650;2023-03-21T13:00:24;8.13;;;6.13;;
12703;SDS011;6416;52.182;7.650;2023-03-21T13:03:11;7.43;;;6.40;;
12703;SDS011;6416;52.182;7.650;2023-03-21T13:05:55;6.57;;;5.70;;
12703;SDS011;6416;52.182;7.650;2023-03-21T13:08:23;8.40;;;6.20;;
12703;SDS011;6416;52.182;7.650;2023-03-21T13:10:57;7.80;;;5.57;;
12703;SDS011;6416;52.182;7.650;2023-03-21T13:16:22;6.60;;;5.77;;
12703;SDS011;6416;52.182;7.650;2023-03-21T13:27:02;6.47;;;4.90;;
12703;SDS011;6416;52.182;7.650;2023-03-21T13:29:45;5.67;;;5.17;;
12703;SDS011;6416;52.182;7.650;2023-03-21T13:34:39;7.13;;;4.90;;
12703;SDS011;6416;52.182;7.650;2023-03-21T13:37:05;7.03;;;4.67;;
12703;SDS011;6416;52.182;7.650;2023-03-21T13:39:44;4.60;;;4.17;;
12703;SDS011;6416;52.182;7.650;2023-03-21T13:42:31;5.90;;;4.60;;
12703;SDS011;6416;52.182;7.650;2023-03-21T13:45:00;6.67;;;4.50;;
12703;SDS011;6416;52.182;7.650;2023-03-21T13:47:38;5.23;;;3.60;;
12703;SDS011;6416;52.182;7.650;2023-03-21T13:52:42;4.77;;;3.90;;
12703;SDS011;6416;52.182;7.650;2023-03-21T13:55:28;4.73;;;3.63;;
12703;SDS011;6416;52.182;7.650;2023-03-21T13:57:55;3.30;;;2.93;;
12703;SDS011;6416;52.182;7.650;2023-03-21T14:00:28;5.17;;;3.57;;
12703;SDS011;6416;52.182;7.650;2023-03-21T14:05:23;4.83;;;3.30;;
12703;SDS011;6416;52.182;7.650;2023-03-21T14:07:52;4.93;;;3.80;;
12703;SDS011;6416;52.182;7.650;2023-03-21T14:10:27;4.60;;;3.60;;
12703;SDS011;6416;52.182;7.650;2023-03-21T14:12:57;5.40;;;3.57;;
12703;SDS011;6416;52.182;7.650;2023-03-21T14:15:25;5.80;;;3.60;;
12703;SDS011;6416;52.182;7.650;2023-03-21T14:17:56;4.70;;;3.80;;
12703;SDS011;6416;52.182;7.650;2023-03-21T14:20:25;5.43;;;3.93;;
12703;SDS011;6416;52.182;7.650;2023-03-21T14:22:52;6.73;;;4.47;;
12703;SDS011;6416;52.182;7.650;2023-03-21T14:25:19;5.10;;;3.67;;
12703;SDS011;6416;52.182;7.650;2023-03-21T14:27:48;5.30;;;3.73;;
12703;SDS011;6416;52.182;7.650;2023-03-21T14:30:23;4.33;;;3.40;;
12703;SDS011;6416;52.182;7.650;2023-03-21T14:32:57;4.53;;;3.70;;
12703;SDS011;6416;52.182;7.650;2023-03-21T14:35:27;5.70;;;3.83;;
12703;SDS011;6416;52.182;7.650;2023-03-21T14:37:54;7.27;;;4.00;;
12703;SDS011;6416;52.182;7.650;2023-03-21T14:40:21;7.50;;;3.60;;
12703;SDS011;6416;52.182;7.650;2023-03-21T14:42:49;5.63;;;3.70;;
12703;SDS011;6416;52.182;7.650;2023-03-21T14:45:23;6.30;;;3.53;;
12703;SDS011;6416;52.182;7.650;2023-03-21T14:48:02;3.57;;;3.20;;
12703;SDS011;6416;52.182;7.650;2023-03-21T14:50:32;5.87;;;3.50;;
12703;SDS011;6416;52.182;7.650;2023-03-21T14:53:26;5.70;;;3.70;;
12703;SDS011;6416;52.182;7.650;2023-03-21T14:56:02;5.03;;;3.63;;
12703;SDS011;6416;52.182;7.650;2023-03-21T14:58:47;6.87;;;3.70;;
12703;SDS011;6416;52.182;7.650;2023-03-21T15:04:10;5.60;;;3.50;;
12703;SDS011;6416;52.182;7.650;2023-03-21T15:06:51;5.50;;;3.73;;
12703;SDS011;6416;52.182;7.650;2023-03-21T15:09:25;4.67;;;3.43;;
12703;SDS011;6416;52.182;7.650;2023-03-21T15:11:54;4.10;;;3.10;;
12703;SDS011;6416;52.182;7.650;2023-03-21T15:14:31;4.37;;;3.10;;
12703;SDS011;6416;52.182;7.650;2023-03-21T15:16:58;6.47;;;3.57;;
12703;SDS011;6416;52.182;7.650;2023-03-21T15:19:30;4.73;;;3.00;;
12703;SDS011;6416;52.182;7.650;2023-03-21T15:22:13;4.40;;;3.00;;
12703;SDS011;6416;52.182;7.650;2023-03-21T15:24:44;3.13;;;2.63;;
12703;SDS011;6416;52.182;7.650;2023-03-21T15:27:14;4.03;;;2.60;;
12703;SDS011;6416;52.182;7.650;2023-03-21T15:29:41;5.17;;;2.73;;
12703;SDS011;6416;52.182;7.650;2023-03-21T15:32:12;4.77;;;2.43;;
12703;SDS011;6416;52.182;7.650;2023-03-21T15:34:41;3.80;;;2.63;;
12703;SDS011;6416;52.182;7.650;2023-03-21T15:37:12;3.87;;;2.43;;
12703;SDS011;6416;52.182;7.650;2023-03-21T15:39:40;4.70;;;3.10;;
12703;SDS011;6416;52.182;7.650;2023-03-21T15:42:26;4.00;;;2.57;;
12703;SDS011;6416;52.182;7.650;2023-03-21T15:44:52;2.73;;;2.40;;
12703;SDS011;6416;52.182;7.650;2023-03-21T15:47:39;2.50;;;2.20;;
12703;SDS011;6416;52.182;7.650;2023-03-21T15:50:10;3.63;;;2.63;;
12703;SDS011;6416;52.182;7.650;2023-03-21T15:53:15;4.50;;;2.80;;
12703;SDS011;6416;52.182;7.650;2023-03-21T15:55:46;2.77;;;2.30;;
12703;SDS011;6416;52.182;7.650;2023-03-21T15:58:17;5.40;;;2.73;;
12703;SDS011;6416;52.182;7.650;2023-03-21T16:00:52;3.10;;;2.80;;
12703;SDS011;6416;52.182;7.650;2023-03-21T16:03:20;4.67;;;2.57;;
12703;SDS011;6416;52.182;7.650;2023-03-21T16:06:04;3.37;;;2.70;;
12703;SDS011;6416;52.182;7.650;2023-03-21T16:08:36;3.67;;;2.77;;
12703;SDS011;6416;52.182;7.650;2023-03-21T16:11:28;6.13;;;3.00;;
12703;SDS011;6416;52.182;7.650;2023-03-21T16:14:00;5.80;;;3.07;;
12703;SDS011;6416;52.182;7.650;2023-03-21T16:16:27;3.03;;;2.73;;
12703;SDS011;6416;52.182;7.650;2023-03-21T16:18:54;4.37;;;2.90;;
12703;SDS011;6416;52.182;7.650;2023-03-21T16:21:22;3.27;;;2.80;;
12703;SDS011;6416;52.182;7.650;2023-03-21T16:23:49;4.13;;;2.87;;
12703;SDS011;6416;52.182;7.650;2023-03-21T16:26:21;4.30;;;2.80;;
12703;SDS011;6416;52.182;7.650;2023-03-21T16:28:49;3.93;;;2.90;;
12703;SDS011;6416;52.182;7.650;2023-03-21T16:31:16;3.87;;;2.87;;
12703;SDS011;6416;52.182;7.650;2023-03-21T16:33:46;4.37;;;2.70;;
12703;SDS011;6416;52.182;7.650;2023-03-21T16:36:13;4.23;;;3.10;;
12703;SDS011;6416;52.182;7.650;2023-03-21T16:38:41;3.60;;;2.83;;
12703;SDS011;6416;52.182;7.650;2023-03-21T16:41:10;3.53;;;2.60;;
12703;SDS011;6416;52.182;7.650;2023-03-21T16:43:36;3.67;;;2.73;;
12703;SDS011;6416;52.182;7.650;2023-03-21T16:46:02;4.03;;;2.90;;
12703;SDS011;6416;52.182;7.650;2023-03-21T16:48:27;3.47;;;2.60;;
12703;SDS011;6416;52.182;7.650;2023-03-21T16:50:53;5.47;;;3.40;;
12703;SDS011;6416;52.182;7.650;2023-03-21T16:53:18;3.47;;;2.90;;
12703;SDS011;6416;52.182;7.650;2023-03-21T16:55:44;4.87;;;2.60;;
12703;SDS011;6416;52.182;7.650;2023-03-21T16:58:10;3.57;;;2.80;;